createdAt,value
2023-06-10T00:00:06.266Z,414.57
2023-06-10T00:02:34.571Z,408.70
2023-06-10T00:05:03.028Z,405.00
2023-06-10T00:07:31.204Z,400.67
2023-06-10T00:09:59.328Z,397.50
2023-06-10T00:12:30.183Z,399.10
2023-06-10T00:14:58.307Z,402.03
2023-06-10T00:17:26.513Z,401.13
2023-06-10T00:19:55.077Z,397.92
2023-06-10T00:22:23.437Z,399.80
2023-06-10T00:24:51.926Z,395.00
2023-06-10T00:27:20.096Z,403.17
2023-06-10T00:29:49.626Z,401.37
2023-06-10T00:32:17.809Z,391.33
2023-06-10T00:34:46.006Z,402.07
2023-06-10T00:37:14.137Z,386.13
2023-06-10T00:39:42.263Z,386.63
2023-06-10T00:42:11.903Z,388.10
2023-06-10T00:44:40.049Z,384.80
2023-06-10T00:47:10.496Z,382.37
2023-06-10T00:49:38.855Z,390.83
2023-06-10T00:52:08.957Z,396.47
2023-06-10T00:54:37.142Z,380.13
2023-06-10T00:57:06.684Z,390.50
2023-06-10T00:59:35.293Z,388.53
2023-06-10T01:02:04.726Z,367.53
2023-06-10T01:04:34.308Z,383.77
2023-06-10T01:07:17.124Z,378.20
2023-06-10T01:09:53.694Z,374.88
2023-06-10T01:12:29.255Z,378.47
2023-06-10T01:14:57.825Z,367.67
2023-06-10T01:17:29.876Z,376.10
2023-06-10T01:20:00.360Z,370.77
2023-06-10T01:22:33.272Z,373.10
2023-06-10T01:25:01.686Z,367.30
2023-06-10T01:27:34.728Z,359.53
2023-06-10T01:30:14.290Z,334.43
2023-06-10T01:32:47.859Z,247.50
2023-06-10T01:35:17.018Z,262.20
2023-06-10T01:37:48.804Z,278.17
2023-06-10T01:40:18.866Z,274.08
2023-06-10T01:42:47.072Z,287.58
2023-06-10T01:45:15.255Z,308.42
2023-06-10T01:47:43.452Z,308.93
2023-06-10T01:50:12.185Z,287.33
2023-06-10T01:52:40.447Z,301.33
2023-06-10T01:55:10.660Z,264.17
2023-06-10T01:57:39.112Z,268.23
2023-06-10T02:00:09.176Z,267.65
2023-06-10T02:02:37.396Z,276.53
2023-06-10T02:05:06.599Z,301.33
2023-06-10T02:07:34.968Z,261.07
2023-06-10T02:10:03.327Z,326.10
2023-06-10T02:12:32.881Z,253.90
2023-06-10T02:15:01.068Z,234.30
2023-06-10T02:17:29.271Z,264.15
2023-06-10T02:19:57.994Z,239.02
2023-06-10T02:22:26.479Z,258.67
2023-06-10T02:24:54.586Z,244.43
2023-06-10T02:27:23.319Z,241.00
2023-06-10T02:29:52.840Z,230.13
2023-06-10T02:32:21.057Z,263.98
2023-06-10T02:34:50.161Z,212.83
2023-06-10T02:37:18.496Z,229.97
2023-06-10T02:39:46.871Z,244.23
2023-06-10T02:42:15.122Z,254.87
2023-06-10T02:44:43.257Z,267.33
2023-06-10T02:47:12.811Z,214.40
2023-06-10T02:49:41.193Z,233.77
2023-06-10T02:52:09.796Z,238.98
2023-06-10T02:54:38.223Z,217.32
2023-06-10T02:57:07.211Z,213.80
2023-06-10T02:59:36.093Z,249.38
2023-06-10T03:02:05.089Z,229.68
2023-06-10T03:04:35.080Z,276.10
2023-06-10T03:07:04.937Z,200.33
2023-06-10T03:09:33.193Z,213.27
2023-06-10T03:12:01.895Z,216.67
2023-06-10T03:14:30.108Z,200.23
2023-06-10T03:16:58.224Z,209.40
2023-06-10T03:19:26.355Z,233.23
2023-06-10T03:22:10.105Z,204.20
2023-06-10T03:24:41.183Z,246.10
2023-06-10T03:27:10.584Z,210.90
2023-06-10T03:29:38.786Z,212.07
2023-06-10T03:32:07.444Z,252.35
2023-06-10T03:34:35.965Z,279.60
2023-06-10T03:37:06.128Z,252.30
2023-06-10T03:39:35.382Z,282.77
2023-06-10T03:42:03.880Z,288.20
2023-06-10T03:44:32.513Z,200.65
2023-06-10T03:47:01.030Z,257.20
2023-06-10T03:49:31.458Z,197.68
2023-06-10T03:52:00.097Z,234.40
2023-06-10T03:54:29.654Z,212.85
2023-06-10T03:56:57.854Z,268.58
2023-06-10T03:59:25.973Z,274.45
2023-06-10T04:01:54.209Z,207.60
2023-06-10T04:04:22.347Z,229.00
2023-06-10T04:06:50.864Z,277.23
2023-06-10T04:09:19.034Z,253.10
2023-06-10T04:11:49.270Z,293.40
2023-06-10T04:14:17.448Z,191.50
2023-06-10T04:16:45.595Z,256.03
2023-06-10T04:19:13.788Z,240.40
2023-06-10T04:21:41.882Z,245.23
2023-06-10T04:24:10.194Z,240.57
2023-06-10T04:26:38.422Z,225.02
2023-06-10T04:29:08.324Z,204.65
2023-06-10T04:31:36.500Z,232.40
2023-06-10T04:34:04.796Z,280.65
2023-06-10T04:36:33.138Z,212.68
2023-06-10T04:39:01.556Z,202.98
2023-06-10T04:41:29.707Z,208.18
2023-06-10T04:43:58.818Z,216.57
2023-06-10T04:46:28.417Z,201.23
2023-06-10T04:48:56.854Z,147.80
2023-06-10T04:51:25.078Z,192.90
2023-06-10T04:53:53.462Z,224.02
2023-06-10T04:56:22.633Z,225.15
2023-06-10T04:58:50.776Z,266.17
2023-06-10T05:01:19.000Z,184.38
2023-06-10T05:03:48.505Z,177.35
2023-06-10T05:06:16.817Z,177.32
2023-06-10T05:08:45.042Z,180.05
2023-06-10T05:11:13.222Z,203.07
2023-06-10T05:13:41.966Z,201.07
2023-06-10T05:16:10.313Z,211.60
2023-06-10T05:18:38.554Z,218.35
2023-06-10T05:21:09.523Z,238.35
2023-06-10T05:23:37.705Z,289.88
2023-06-10T05:26:05.905Z,334.38
2023-06-10T05:28:34.078Z,388.60
2023-06-10T05:31:02.358Z,418.15
2023-06-10T05:33:30.531Z,424.95
2023-06-10T05:35:58.743Z,436.00
2023-06-10T05:38:28.258Z,441.85
2023-06-10T05:40:58.039Z,441.63
2023-06-10T05:43:26.258Z,447.67
2023-06-10T05:45:54.878Z,448.25
2023-06-10T05:48:23.815Z,448.98
2023-06-10T05:50:52.332Z,437.63
2023-06-10T05:53:20.492Z,462.85
2023-06-10T05:55:50.056Z,455.38
2023-06-10T05:58:18.261Z,429.35
2023-06-10T06:00:46.432Z,445.45
2023-06-10T06:03:15.009Z,461.95
2023-06-10T06:05:43.451Z,468.63
2023-06-10T06:08:12.324Z,476.23
2023-06-10T06:10:40.436Z,471.40
2023-06-10T06:13:09.979Z,467.38
2023-06-10T06:15:38.133Z,449.60
2023-06-10T06:18:06.445Z,440.63
2023-06-10T06:20:34.638Z,454.50
2023-06-10T06:23:02.796Z,445.00
2023-06-10T06:25:30.923Z,450.00
2023-06-10T06:27:59.096Z,459.40
2023-06-10T06:30:28.628Z,469.70
2023-06-10T06:32:57.275Z,493.50
2023-06-10T06:35:25.474Z,497.27
2023-06-10T06:37:53.571Z,518.40
2023-06-10T06:40:21.780Z,520.70
2023-06-10T06:42:50.003Z,518.33
2023-06-10T06:45:18.190Z,418.45
2023-06-10T06:47:47.848Z,482.38
2023-06-10T06:50:16.332Z,533.13
2023-06-10T06:52:45.484Z,531.85
2023-06-10T06:55:13.652Z,543.63
2023-06-10T06:57:41.770Z,559.58
2023-06-10T07:00:10.914Z,563.13
2023-06-10T07:02:39.269Z,569.42
2023-06-10T07:05:09.903Z,573.83
2023-06-10T07:07:38.258Z,603.65
2023-06-10T07:10:07.318Z,596.83
2023-06-10T07:12:35.466Z,593.85
2023-06-10T07:15:03.862Z,612.38
2023-06-10T07:17:32.041Z,616.67
2023-06-10T07:20:00.810Z,613.75
2023-06-10T07:22:30.491Z,592.42
2023-06-10T07:24:58.708Z,613.85
2023-06-10T07:27:27.036Z,311.60
2023-06-10T07:29:55.187Z,274.52
2023-06-10T07:32:24.864Z,351.95
2023-06-10T07:34:53.534Z,401.52
2023-06-10T07:37:21.750Z,604.00
2023-06-10T07:39:51.659Z,616.53
2023-06-10T07:42:19.855Z,608.47
2023-06-10T07:44:48.002Z,597.95
2023-06-10T07:47:16.157Z,587.63
2023-06-10T07:49:44.289Z,620.17
2023-06-10T07:52:12.482Z,627.90
2023-06-10T07:54:40.577Z,637.35
2023-06-10T07:57:10.894Z,645.85
2023-06-10T07:59:39.007Z,556.50
2023-06-10T08:02:07.771Z,648.03
2023-06-10T08:04:37.033Z,640.85
2023-06-10T08:07:05.641Z,472.95
2023-06-10T08:09:33.805Z,577.85
2023-06-10T08:12:02.236Z,494.52
2023-06-10T08:14:31.753Z,657.60
2023-06-10T08:17:00.255Z,673.30
2023-06-10T08:19:28.519Z,626.83
2023-06-10T08:21:57.028Z,604.88
2023-06-10T08:24:26.803Z,383.33
2023-06-10T08:26:55.966Z,347.58
2023-06-10T08:29:24.096Z,600.72
2023-06-10T08:31:53.734Z,473.10
2023-06-10T08:34:21.869Z,580.40
2023-06-10T08:36:54.134Z,658.42
2023-06-10T08:39:23.241Z,691.00
2023-06-10T08:42:07.314Z,457.42
2023-06-10T08:44:39.627Z,558.13
2023-06-10T08:47:15.595Z,613.30
2023-06-10T08:49:47.465Z,505.80
2023-06-10T08:52:18.145Z,615.63
2023-06-10T08:54:52.138Z,614.55
2023-06-10T08:57:22.741Z,508.15
2023-06-10T08:59:51.274Z,515.85
2023-06-10T09:02:21.974Z,428.35
2023-06-10T09:04:51.311Z,461.45
2023-06-10T09:07:19.788Z,675.95
2023-06-10T09:09:49.155Z,618.05
2023-06-10T09:12:17.546Z,638.65
2023-06-10T09:14:45.813Z,551.15
2023-06-10T09:17:14.054Z,577.50
2023-06-10T09:19:44.789Z,511.60
2023-06-10T09:22:13.001Z,415.98
2023-06-10T09:24:41.765Z,174.82
2023-06-10T09:27:10.947Z,95.28
2023-06-10T09:29:49.273Z,110.70
2023-06-10T09:32:20.492Z,353.67
2023-06-10T09:34:51.951Z,424.63
2023-06-10T09:37:23.052Z,424.52
2023-06-10T09:40:05.701Z,403.05
2023-06-10T09:42:36.640Z,437.98
2023-06-10T09:45:04.920Z,462.55
2023-06-10T09:47:33.145Z,439.13
2023-06-10T09:50:02.927Z,394.48
2023-06-10T09:52:31.870Z,426.23
2023-06-10T09:55:03.802Z,423.65
2023-06-10T09:57:35.141Z,294.65
2023-06-10T10:00:09.125Z,345.40
2023-06-10T10:02:47.985Z,342.08
2023-06-10T10:05:18.403Z,401.88
2023-06-10T10:07:47.388Z,384.63
2023-06-10T10:10:16.698Z,517.08
2023-06-10T10:12:45.242Z,548.28
2023-06-10T10:15:14.424Z,576.53
2023-06-10T10:17:47.010Z,408.67
2023-06-10T10:20:20.066Z,271.42
2023-06-10T10:22:50.059Z,243.65
2023-06-10T10:25:23.060Z,292.95
2023-06-10T10:27:57.185Z,212.48
2023-06-10T10:30:27.816Z,55.92
2023-06-10T10:33:00.947Z,156.63
2023-06-10T10:35:32.276Z,377.92
2023-06-10T10:38:00.815Z,583.47
2023-06-10T10:40:31.498Z,552.97
2023-06-10T10:43:01.418Z,492.90
2023-06-10T10:45:30.773Z,528.72
2023-06-10T10:47:59.063Z,366.27
2023-06-10T10:50:32.515Z,391.33
2023-06-10T10:53:03.233Z,94.72
2023-06-10T10:55:31.873Z,289.60
2023-06-10T10:58:01.592Z,390.27
2023-06-10T11:00:31.630Z,405.95
2023-06-10T11:03:03.616Z,50.08
2023-06-10T11:05:39.716Z,413.38
2023-06-10T11:08:10.643Z,457.45
2023-06-10T11:10:40.248Z,403.95
2023-06-10T11:13:10.005Z,596.67
2023-06-10T11:15:42.460Z,577.80
2023-06-10T11:18:15.462Z,117.88
2023-06-10T11:21:02.351Z,4.45
2023-06-10T11:23:40.973Z,119.80
2023-06-10T11:26:17.907Z,3.35
2023-06-10T11:29:10.837Z,3.75
2023-06-10T11:31:48.259Z,4.07
2023-06-10T11:34:17.430Z,4.97
2023-06-10T11:36:47.293Z,4.90
2023-06-10T11:39:15.769Z,22.92
2023-06-10T11:41:44.024Z,299.48
2023-06-10T11:44:16.166Z,66.53
2023-06-10T11:46:46.547Z,490.00
2023-06-10T11:49:15.011Z,124.40
2023-06-10T11:51:50.266Z,38.97
2023-06-10T11:54:20.254Z,441.23
2023-06-10T11:56:48.866Z,142.57
2023-06-10T11:59:17.121Z,399.48
2023-06-10T12:01:46.943Z,364.23
2023-06-10T12:04:16.599Z,167.77
2023-06-10T12:06:47.556Z,241.23
2023-06-10T12:09:25.889Z,229.10
2023-06-10T12:11:59.256Z,28.10
2023-06-10T12:14:52.491Z,71.68
2023-06-10T12:17:20.732Z,300.15
2023-06-10T12:19:49.170Z,48.47
2023-06-10T12:22:17.762Z,131.18
2023-06-10T12:25:00.498Z,198.45
2023-06-10T12:27:30.964Z,147.85
2023-06-10T12:30:01.952Z,246.88
2023-06-10T12:32:42.002Z,213.85
2023-06-10T12:35:11.965Z,180.25
2023-06-10T12:37:43.111Z,239.48
2023-06-10T12:40:13.896Z,350.88
2023-06-10T12:42:42.948Z,369.60
2023-06-10T12:45:13.487Z,398.33
2023-06-10T12:47:42.822Z,424.75
2023-06-10T12:50:13.103Z,439.23
2023-06-10T12:52:42.420Z,477.88
2023-06-10T12:55:12.561Z,527.53
2023-06-10T12:57:50.458Z,528.45
2023-06-10T13:00:20.649Z,511.75
2023-06-10T13:02:49.496Z,499.98
2023-06-10T13:05:17.966Z,491.75
2023-06-10T13:07:46.655Z,530.25
2023-06-10T13:10:17.369Z,531.22
2023-06-10T13:12:47.976Z,565.85
2023-06-10T13:15:17.418Z,660.53
2023-06-10T13:17:46.899Z,698.15
2023-06-10T13:20:15.799Z,673.72
2023-06-10T13:22:44.263Z,585.10
2023-06-10T13:25:12.956Z,622.25
2023-06-10T13:27:43.549Z,618.50
2023-06-10T13:30:13.208Z,619.75
2023-06-10T13:32:41.815Z,646.80
2023-06-10T13:35:11.005Z,745.28
2023-06-10T13:37:39.673Z,679.75
2023-06-10T13:40:10.761Z,588.10
2023-06-10T13:42:39.207Z,730.38
2023-06-10T13:45:10.988Z,655.03
2023-06-10T13:47:39.721Z,729.25
2023-06-10T13:50:09.440Z,582.70
2023-06-10T13:52:37.626Z,835.08
2023-06-10T13:55:06.597Z,835.75
2023-06-10T13:57:34.822Z,837.17
2023-06-10T14:00:03.161Z,831.50
2023-06-10T14:02:32.864Z,837.60
2023-06-10T14:05:01.254Z,656.00
2023-06-10T14:07:29.380Z,784.58
2023-06-10T14:09:57.819Z,839.45
2023-06-10T14:12:26.029Z,836.95
2023-06-10T14:14:55.329Z,839.35
2023-06-10T14:17:24.437Z,837.47
2023-06-10T14:19:54.187Z,837.10
2023-06-10T14:22:22.378Z,839.88
2023-06-10T14:24:50.535Z,840.00
2023-06-10T14:27:18.794Z,839.47
2023-06-10T14:29:46.977Z,843.70
2023-06-10T14:32:15.545Z,841.17
2023-06-10T14:34:45.513Z,843.35
2023-06-10T14:37:15.382Z,840.90
2023-06-10T14:39:43.533Z,852.80
2023-06-10T14:42:11.922Z,845.72
2023-06-10T14:44:40.127Z,847.20
2023-06-10T14:47:08.700Z,852.38
2023-06-10T14:49:37.077Z,856.50
2023-06-10T14:52:05.886Z,872.17
2023-06-10T14:54:35.423Z,878.22
2023-06-10T14:57:04.080Z,876.53
2023-06-10T14:59:32.251Z,885.05
2023-06-10T15:02:01.882Z,892.25
2023-06-10T15:04:30.524Z,895.03
2023-06-10T15:06:59.549Z,894.30
2023-06-10T15:09:27.721Z,903.13
2023-06-10T15:11:57.283Z,801.42
2023-06-10T15:14:25.458Z,909.85
2023-06-10T15:16:53.802Z,928.75
2023-06-10T15:19:22.037Z,933.70
2023-06-10T15:21:50.303Z,942.97
2023-06-10T15:24:18.552Z,941.70
2023-06-10T15:26:46.816Z,946.55
2023-06-10T15:29:16.492Z,949.55
2023-06-10T15:31:44.708Z,947.25
2023-06-10T15:34:13.082Z,945.55
2023-06-10T15:36:41.245Z,957.78
2023-06-10T15:39:09.437Z,956.30
2023-06-10T15:41:37.601Z,958.28
2023-06-10T15:44:06.140Z,951.22
2023-06-10T15:46:36.592Z,950.17
2023-06-10T15:49:05.061Z,950.13
2023-06-10T15:51:33.180Z,940.28
2023-06-10T15:54:01.476Z,939.15
2023-06-10T15:56:29.677Z,940.85
2023-06-10T15:58:57.915Z,944.33
2023-06-10T16:01:26.174Z,945.47
2023-06-10T16:03:55.811Z,947.67
2023-06-10T16:06:24.090Z,939.60
2023-06-10T16:08:52.282Z,938.42
2023-06-10T16:11:20.849Z,938.65
2023-06-10T16:13:49.014Z,933.85
2023-06-10T16:16:17.243Z,933.67
2023-06-10T16:18:45.445Z,932.63
2023-06-10T16:21:15.012Z,937.25
2023-06-10T16:23:43.308Z,938.05
2023-06-10T16:26:11.735Z,939.45
2023-06-10T16:28:39.913Z,928.53
2023-06-10T16:31:08.226Z,935.85
2023-06-10T16:33:37.419Z,903.38
2023-06-10T16:36:05.819Z,921.50
2023-06-10T16:38:35.372Z,899.55
2023-06-10T16:41:03.549Z,942.63
2023-06-10T16:43:31.722Z,912.47
2023-06-10T16:45:59.922Z,924.75
2023-06-10T16:48:28.129Z,942.63
2023-06-10T16:50:56.466Z,951.28
2023-06-10T16:53:24.614Z,936.20
2023-06-10T16:55:54.251Z,941.88
2023-06-10T16:58:22.593Z,922.45
2023-06-10T17:00:51.160Z,924.47
2023-06-10T17:03:19.279Z,920.45
2023-06-10T17:05:47.693Z,944.15
2023-06-10T17:08:15.952Z,897.03
2023-06-10T17:10:44.456Z,925.00
2023-06-10T17:13:14.347Z,944.65
2023-06-10T17:15:42.893Z,908.72
2023-06-10T17:18:12.457Z,919.45
2023-06-10T17:20:40.784Z,927.20
2023-06-10T17:23:08.998Z,943.50
2023-06-10T17:25:37.890Z,936.78
2023-06-10T17:28:06.348Z,955.85
2023-06-10T17:30:35.951Z,952.70
2023-06-10T17:33:04.469Z,954.03
2023-06-10T17:35:32.661Z,946.55
2023-06-10T17:38:00.851Z,930.17
2023-06-10T17:40:29.075Z,944.83
2023-06-10T17:42:57.274Z,914.33
2023-06-10T17:45:25.555Z,929.63
2023-06-10T17:47:55.183Z,931.33
2023-06-10T17:50:23.532Z,951.80
2023-06-10T17:52:51.761Z,887.80
2023-06-10T17:55:20.593Z,931.55
2023-06-10T17:57:48.744Z,891.60
2023-06-10T18:00:17.420Z,920.60
2023-06-10T18:02:45.699Z,906.45
2023-06-10T18:05:15.342Z,898.33
2023-06-10T18:07:44.215Z,915.65
2023-06-10T18:10:13.071Z,888.38
2023-06-10T18:12:41.352Z,908.53
2023-06-10T18:15:10.711Z,939.80
2023-06-10T18:17:39.183Z,966.60
2023-06-10T18:20:08.627Z,891.53
2023-06-10T18:22:38.605Z,944.30
2023-06-10T18:25:07.602Z,928.20
2023-06-10T18:27:36.557Z,920.42
2023-06-10T18:30:05.123Z,912.03
2023-06-10T18:32:33.366Z,890.50
2023-06-10T18:35:01.490Z,958.30
2023-06-10T18:37:29.679Z,860.28
2023-06-10T18:39:59.238Z,859.75
2023-06-10T18:42:28.611Z,892.50
2023-06-10T18:44:56.775Z,901.03
2023-06-10T18:47:24.952Z,893.55
2023-06-10T18:49:53.228Z,896.17
2023-06-10T18:52:21.436Z,885.47
2023-06-10T18:54:49.768Z,871.63
2023-06-10T18:57:19.347Z,904.30
2023-06-10T18:59:47.474Z,891.10
2023-06-10T19:02:16.252Z,892.63
2023-06-10T19:04:45.439Z,880.53
2023-06-10T19:07:13.562Z,844.90
2023-06-10T19:09:41.676Z,861.47
2023-06-10T19:12:11.209Z,858.63
2023-06-10T19:14:41.720Z,865.40
2023-06-10T19:17:11.700Z,862.08
2023-06-10T19:19:39.961Z,847.90
2023-06-10T19:22:08.421Z,808.13
2023-06-10T19:24:36.584Z,851.55
2023-06-10T19:27:05.038Z,828.40
2023-06-10T19:29:33.183Z,752.97
2023-06-10T19:32:02.821Z,840.35
2023-06-10T19:34:31.043Z,832.00
2023-06-10T19:36:59.233Z,827.88
2023-06-10T19:39:27.387Z,827.83
2023-06-10T19:41:55.517Z,827.40
2023-06-10T19:44:23.679Z,816.00
2023-06-10T19:46:52.731Z,807.45
2023-06-10T19:49:22.337Z,807.28
2023-06-10T19:51:52.181Z,802.15
2023-06-10T19:54:20.820Z,795.70
2023-06-10T19:56:49.109Z,792.40
2023-06-10T19:59:17.344Z,802.17
2023-06-10T20:01:45.532Z,798.40
2023-06-10T20:04:13.715Z,803.80
2023-06-10T20:06:43.260Z,788.88
2023-06-10T20:09:11.798Z,734.25
2023-06-10T20:11:40.000Z,787.53
2023-06-10T20:14:08.446Z,779.80
2023-06-10T20:16:36.931Z,782.55
2023-06-10T20:19:05.149Z,772.95
2023-06-10T20:21:33.348Z,773.88
2023-06-10T20:24:06.036Z,767.00
2023-06-10T20:26:34.437Z,764.85
2023-06-10T20:29:03.542Z,757.35
2023-06-10T20:31:31.839Z,758.22
2023-06-10T20:34:00.050Z,756.50
2023-06-10T20:36:29.660Z,740.47
2023-06-10T20:38:59.960Z,738.45
2023-06-10T20:41:30.395Z,740.88
2023-06-10T20:43:59.599Z,740.70
2023-06-10T20:46:27.803Z,730.30
2023-06-10T20:48:55.954Z,729.65
2023-06-10T20:51:24.289Z,731.03
2023-06-10T20:53:52.756Z,729.08
2023-06-10T20:56:21.424Z,728.95
2023-06-10T20:58:51.120Z,658.33
2023-06-10T21:01:19.460Z,612.58
2023-06-10T21:03:47.742Z,574.40
2023-06-10T21:06:16.045Z,623.28
2023-06-10T21:08:44.226Z,651.70
2023-06-10T21:11:12.464Z,656.92
2023-06-10T21:13:40.811Z,628.42
2023-06-10T21:16:10.458Z,642.63
2023-06-10T21:18:38.643Z,645.50
2023-06-10T21:21:06.964Z,650.85
2023-06-10T21:23:35.230Z,672.47
2023-06-10T21:26:06.383Z,664.55
2023-06-10T21:28:34.715Z,682.80
2023-06-10T21:31:04.895Z,672.08
2023-06-10T21:33:34.612Z,658.50
2023-06-10T21:36:03.287Z,659.97
2023-06-10T21:38:31.600Z,640.10
2023-06-10T21:40:59.888Z,674.67
2023-06-10T21:43:28.277Z,674.72
2023-06-10T21:45:57.601Z,657.70
2023-06-10T21:48:25.973Z,653.63
2023-06-10T21:50:55.678Z,656.78
2023-06-10T21:53:24.327Z,648.47
2023-06-10T21:55:52.598Z,644.97
2023-06-10T21:58:20.786Z,659.60
2023-06-10T22:00:48.997Z,655.25
2023-06-10T22:03:17.325Z,655.33
2023-06-10T22:05:45.585Z,652.83
2023-06-10T22:08:15.229Z,654.30
2023-06-10T22:10:43.526Z,658.38
2023-06-10T22:13:11.710Z,641.35
2023-06-10T22:15:39.862Z,649.17
2023-06-10T22:18:08.470Z,649.05
2023-06-10T22:20:36.652Z,642.60
2023-06-10T22:23:05.804Z,632.67
2023-06-10T22:25:35.341Z,631.20
2023-06-10T22:28:03.613Z,631.97
2023-06-10T22:30:32.126Z,633.83
2023-06-10T22:33:00.383Z,626.17
2023-06-10T22:35:28.543Z,625.65
2023-06-10T22:37:56.709Z,615.90
2023-06-10T22:40:25.092Z,613.35
2023-06-10T22:42:54.678Z,612.22
2023-06-10T22:45:22.939Z,604.75
2023-06-10T22:47:51.200Z,602.13
2023-06-10T22:50:19.592Z,604.10
2023-06-10T22:52:47.772Z,598.67
2023-06-10T22:55:16.112Z,590.10
2023-06-10T22:57:44.300Z,587.95
2023-06-10T23:00:16.740Z,583.10
2023-06-10T23:02:45.273Z,580.33
2023-06-10T23:05:13.599Z,576.05
2023-06-10T23:07:41.993Z,570.03
2023-06-10T23:10:10.868Z,582.53
2023-06-10T23:12:39.455Z,572.97
2023-06-10T23:15:08.701Z,571.78
2023-06-10T23:17:38.534Z,571.63
2023-06-10T23:20:08.453Z,570.53
2023-06-10T23:22:37.875Z,572.40
2023-06-10T23:25:07.217Z,562.30
2023-06-10T23:27:35.458Z,563.20
2023-06-10T23:30:03.961Z,551.47
2023-06-10T23:32:32.651Z,563.17
2023-06-10T23:35:02.296Z,553.88
2023-06-10T23:37:30.457Z,552.42
2023-06-10T23:39:58.583Z,555.72
2023-06-10T23:42:26.825Z,551.33
2023-06-10T23:44:55.053Z,543.55
2023-06-10T23:47:23.274Z,546.78
2023-06-10T23:49:51.515Z,541.78
2023-06-10T23:52:22.580Z,535.17
2023-06-10T23:54:51.580Z,527.05
2023-06-10T23:57:19.746Z,532.55
2023-06-10T23:59:47.908Z,541.92
